Time,TemperatureF,DewpointF,PressureIn,WindDirection,WindDirectionDegrees,WindSpeedMPH,WindSpeedGustMPH,Humidity,HourlyPrecipIn,Conditions,Clouds,dailyrainin,SoftwareType,DateUTC
2014-01-02 00:00:00,0.3,-13.5,29.00,WNW,292,4.3,7.4,51,0.00,,,0.00,VWS V14.01,2014-01-02 06:00:00,
2014-01-02 00:05:00,0.3,-13.5,29.00,NNW,338,4.0,5.4,51,0.00,,,0.00,VWS V14.01,2014-01-02 06:05:00,
2014-01-02 00:10:00,0.3,-13.5,29.00,NNW,338,4.3,6.3,51,0.00,,,0.00,VWS V14.01,2014-01-02 06:10:00,
2014-01-02 00:15:00,0.3,-13.5,29.00,NNW,338,4.0,4.9,51,0.00,,,0.00,VWS V14.01,2014-01-02 06:15:00,
2014-01-02 00:20:00,0.1,-13.7,29.00,NNW,338,3.4,6.3,51,0.00,,,0.00,VWS V14.01,2014-01-02 06:20:00,
2014-01-02 00:25:00,0.1,-13.7,29.00,NNW,338,6.3,6.3,51,0.00,,,0.00,VWS V14.01,2014-01-02 06:25:00,
2014-01-02 00:30:00,0.1,-13.7,29.00,NNW,338,3.4,6.3,51,0.00,,,0.00,VWS V14.01,2014-01-02 06:30:00,
2014-01-02 00:35:00,0.1,-13.7,29.00,NNW,338,5.6,6.0,51,0.00,,,0.00,VWS V14.01,2014-01-02 06:35:00,
2014-01-02 00:40:00,0.1,-13.7,29.00,NNW,338,4.3,7.4,51,0.00,,,0.00,VWS V14.01,2014-01-02 06:40:00,
2014-01-02 00:45:00,0.3,-13.5,29.00,NW,315,4.0,4.7,51,0.00,,,0.00,VWS V14.01,2014-01-02 06:45:00,
2014-01-02 00:50:00,0.1,-13.7,29.00,NNW,338,4.0,6.3,51,0.00,,,0.00,VWS V14.01,2014-01-02 06:50:00,
2014-01-02 00:55:00,0.1,-13.7,29.00,NNW,338,5.4,7.4,51,0.00,,,0.00,VWS V14.01,2014-01-02 06:55:00,
2014-01-02 01:00:00,0.1,-13.7,29.00,NNW,338,5.4,7.6,51,0.00,,,0.00,VWS V14.01,2014-01-02 07:00:00,
2014-01-02 01:05:00,0.3,-13.5,29.00,NNW,338,6.0,6.7,51,0.00,,,0.00,VWS V14.01,2014-01-02 07:05:00,
2014-01-02 01:10:00,0.3,-13.5,29.00,NNW,338,6.0,8.5,51,0.00,,,0.00,VWS V14.01,2014-01-02 07:10:00,
2014-01-02 01:15:00,0.1,-13.7,29.00,NNW,338,5.8,8.7,51,0.00,,,0.00,VWS V14.01,2014-01-02 07:15:00,
2014-01-02 01:20:00,0.3,-13.5,29.00,NW,315,4.9,7.8,51,0.00,,,0.00,VWS V14.01,2014-01-02 07:20:00,
2014-01-02 01:25:00,0.1,-13.7,29.00,NNW,338,5.8,6.3,51,0.00,,,0.00,VWS V14.01,2014-01-02 07:25:00,
2014-01-02 01:30:00,0.1,-13.7,29.00,NNE,22,4.9,6.5,51,0.00,,,0.00,VWS V14.01,2014-01-02 07:30:00,
2014-01-02 01:35:00,0.1,-13.7,29.00,NNW,338,3.4,6.5,51,0.00,,,0.00,VWS V14.01,2014-01-02 07:35:00,
2014-01-02 01:40:00,0.3,-13.5,29.00,NNW,338,4.3,4.9,51,0.00,,,0.00,VWS V14.01,2014-01-02 07:40:00,
2014-01-02 01:45:00,0.3,-13.5,29.00,WNW,292,2.9,4.7,51,0.00,,,0.00,VWS V14.01,2014-01-02 07:45:00,
2014-01-02 01:50:00,0.3,-13.5,29.00,NNW,338,3.8,5.4,51,0.00,,,0.00,VWS V14.01,2014-01-02 07:50:00,
2014-01-02 01:55:00,0.3,-13.5,29.00,NNW,338,3.8,5.4,51,0.00,,,0.00,VWS V14.01,2014-01-02 07:55:00,
2014-01-02 02:00:00,0.3,-13.5,29.00,NNW,338,4.5,5.6,51,0.00,,,0.00,VWS V14.01,2014-01-02 08:00:00,
2014-01-02 02:05:00,0.3,-13.5,29.00,NNW,338,3.4,6.5,51,0.00,,,0.00,VWS V14.01,2014-01-02 08:05:00,
2014-01-02 02:10:00,0.3,-13.5,29.00,NNW,338,6.5,6.5,51,0.00,,,0.00,VWS V14.01,2014-01-02 08:10:00,
2014-01-02 02:15:00,0.3,-13.5,29.00,NNW,338,5.6,6.5,51,0.00,,,0.00,VWS V14.01,2014-01-02 08:15:00,
2014-01-02 02:20:00,0.1,-13.7,29.00,NNW,338,5.8,6.0,51,0.00,,,0.00,VWS V14.01,2014-01-02 08:20:00,
2014-01-02 02:25:00,0.3,-13.5,29.00,NNW,338,7.2,7.2,51,0.00,,,0.00,VWS V14.01,2014-01-02 08:25:00,
2014-01-02 02:30:00,0.0,-13.9,29.00,NNW,338,6.5,7.8,51,0.00,,,0.00,VWS V14.01,2014-01-02 08:30:00,
2014-01-02 02:35:00,-0.4,-14.2,29.00,NNW,338,4.9,6.5,51,0.00,,,0.00,VWS V14.01,2014-01-02 08:35:00,
2014-01-02 02:40:00,-0.8,-14.5,29.00,NNW,338,5.4,6.5,51,0.00,,,0.00,VWS V14.01,2014-01-02 08:40:00,
2014-01-02 02:45:00,-1.3,-15.0,29.00,NNW,338,3.8,6.5,51,0.00,,,0.00,VWS V14.01,2014-01-02 08:45:00,
2014-01-02 02:50:00,-1.8,-15.5,29.03,NNW,338,6.3,6.3,51,0.00,,,0.00,VWS V14.01,2014-01-02 08:50:00,
2014-01-02 02:55:00,-2.2,-15.9,29.03,NNW,338,4.5,6.3,51,0.00,,,0.00,VWS V14.01,2014-01-02 08:55:00,
2014-01-02 03:00:00,-2.6,-16.2,29.03,NNW,338,3.6,5.6,51,0.00,,,0.00,VWS V14.01,2014-01-02 09:00:00,
2014-01-02 03:05:00,-3.1,-16.7,29.00,NNW,338,1.3,4.3,51,0.00,,,0.00,VWS V14.01,2014-01-02 09:05:00,
2014-01-02 03:10:00,-3.6,-17.2,29.00,NNW,338,2.2,2.2,51,0.00,,,0.00,VWS V14.01,2014-01-02 09:10:00,
2014-01-02 03:15:00,-4.2,-17.7,29.00,NNW,338,2.5,3.1,51,0.00,,,0.00,VWS V14.01,2014-01-02 09:15:00,
2014-01-02 03:20:00,-4.4,-17.9,29.00,NNW,338,3.6,3.6,51,0.00,,,0.00,VWS V14.01,2014-01-02 09:20:00,
2014-01-02 03:25:00,-4.9,-18.4,29.00,NNW,338,2.9,4.0,51,0.00,,,0.00,VWS V14.01,2014-01-02 09:25:00,
2014-01-02 03:30:00,-6.2,-19.6,29.00,NNW,338,2.5,3.6,51,0.00,,,0.00,VWS V14.01,2014-01-02 09:30:00,
2014-01-02 03:35:00,-7.2,-20.6,29.00,NNW,338,3.4,4.0,51,0.00,,,0.00,VWS V14.01,2014-01-02 09:35:00,
2014-01-02 03:40:00,-7.1,-20.4,29.00,NNW,338,3.6,4.0,51,0.00,,,0.00,VWS V14.01,2014-01-02 09:40:00,
2014-01-02 03:45:00,-6.7,-20.1,29.00,NNW,338,4.3,4.7,51,0.00,,,0.00,VWS V14.01,2014-01-02 09:45:00,
2014-01-02 03:50:00,-6.5,-19.9,29.00,NNW,338,4.0,4.3,51,0.00,,,0.00,VWS V14.01,2014-01-02 09:50:00,
2014-01-02 03:55:00,-7.1,-20.4,29.00,NNW,338,3.4,4.0,51,0.00,,,0.00,VWS V14.01,2014-01-02 09:55:00,
2014-01-02 04:00:00,-8.0,-21.2,29.00,NW,315,3.8,4.0,51,0.00,,,0.00,VWS V14.01,2014-01-02 10:00:00,
2014-01-02 04:05:00,-8.7,-21.9,29.00,NNW,338,3.8,4.3,51,0.00,,,0.00,VWS V14.01,2014-01-02 10:05:00,
2014-01-02 04:10:00,-8.7,-21.9,29.00,NNW,338,4.0,4.7,51,0.00,,,0.00,VWS V14.01,2014-01-02 10:10:00,
2014-01-02 04:15:00,-8.3,-21.6,29.00,NNW,338,3.8,4.9,51,0.00,,,0.00,VWS V14.01,2014-01-02 10:15:00,
2014-01-02 04:20:00,-8.5,-21.8,29.00,NNW,338,3.8,4.9,51,0.00,,,0.00,VWS V14.01,2014-01-02 10:20:00,
2014-01-02 04:25:00,-8.5,-21.8,29.00,NNW,338,3.8,4.9,51,0.00,,,0.00,VWS V14.01,2014-01-02 10:25:00,
2014-01-02 04:30:00,-8.3,-21.6,29.00,NNW,338,3.6,4.3,51,0.00,,,0.00,VWS V14.01,2014-01-02 10:30:00,
2014-01-02 04:35:00,-8.7,-21.9,29.00,NNW,338,2.7,4.3,51,0.00,,,0.00,VWS V14.01,2014-01-02 10:35:00,
2014-01-02 04:40:00,-8.7,-21.9,29.00,NNW,338,2.9,4.3,51,0.00,,,0.00,VWS V14.01,2014-01-02 10:40:00,
2014-01-02 04:45:00,-9.4,-22.6,29.00,NNW,338,3.6,3.8,51,0.00,,,0.00,VWS V14.01,2014-01-02 10:45:00,
2014-01-02 04:50:00,-9.0,-22.3,29.00,North,0,3.4,4.3,51,0.00,,,0.00,VWS V14.01,2014-01-02 10:50:00,
2014-01-02 04:55:00,-9.2,-22.4,29.00,NW,315,2.5,4.0,51,0.00,,,0.00,VWS V14.01,2014-01-02 10:55:00,
2014-01-02 05:00:00,-9.6,-22.8,29.00,NNW,338,3.6,4.7,51,0.00,,,0.00,VWS V14.01,2014-01-02 11:00:00,
2014-01-02 05:05:00,-9.8,-22.9,29.00,NW,315,3.1,4.0,51,0.00,,,0.00,VWS V14.01,2014-01-02 11:05:00,
2014-01-02 05:10:00,-9.9,-23.1,29.00,NNW,338,2.7,4.0,51,0.00,,,0.00,VWS V14.01,2014-01-02 11:10:00,
2014-01-02 05:15:00,-9.2,-22.4,29.00,NNW,338,3.6,4.9,51,0.00,,,0.00,VWS V14.01,2014-01-02 11:15:00,
2014-01-02 05:20:00,-8.9,-22.1,29.00,NNW,338,4.5,4.5,51,0.00,,,0.00,VWS V14.01,2014-01-02 11:20:00,
2014-01-02 05:25:00,-9.2,-22.4,29.00,NNW,338,3.6,4.5,51,0.00,,,0.00,VWS V14.01,2014-01-02 11:25:00,
2014-01-02 05:30:00,-9.6,-22.8,29.00,NNW,338,3.8,4.5,51,0.00,,,0.00,VWS V14.01,2014-01-02 11:30:00,
2014-01-02 05:35:00,-9.8,-22.9,29.00,NNW,338,4.3,4.3,51,0.00,,,0.00,VWS V14.01,2014-01-02 11:35:00,
2014-01-02 05:40:00,-9.6,-22.8,29.00,NW,315,3.6,4.3,51,0.00,,,0.00,VWS V14.01,2014-01-02 11:40:00,
2014-01-02 05:45:00,-8.7,-21.9,29.00,NNW,338,5.6,6.3,51,0.00,,,0.00,VWS V14.01,2014-01-02 11:45:00,
2014-01-02 05:50:00,-8.7,-21.9,29.00,NNW,338,4.0,5.8,51,0.00,,,0.00,VWS V14.01,2014-01-02 11:50:00,
2014-01-02 05:55:00,-8.0,-21.2,29.00,NNW,338,4.9,6.0,51,0.00,,,0.00,VWS V14.01,2014-01-02 11:55:00,
2014-01-02 06:00:00,-8.0,-21.2,29.00,NNW,338,4.3,6.5,51,0.00,,,0.00,VWS V14.01,2014-01-02 12:00:00,
2014-01-02 06:05:00,-8.1,-21.4,29.00,NW,315,4.0,5.8,51,0.00,,,0.00,VWS V14.01,2014-01-02 12:05:00,
2014-01-02 06:10:00,-8.0,-21.2,29.00,NNW,338,5.8,6.5,51,0.00,,,0.00,VWS V14.01,2014-01-02 12:10:00,
2014-01-02 06:15:00,-8.0,-21.2,29.00,NNW,338,5.4,6.5,51,0.00,,,0.00,VWS V14.01,2014-01-02 12:15:00,
2014-01-02 06:20:00,-8.0,-21.2,29.03,NNW,338,5.4,6.5,51,0.00,,,0.00,VWS V14.01,2014-01-02 12:20:00,
2014-01-02 06:25:00,-7.2,-20.6,29.03,NNW,338,5.4,7.4,51,0.00,,,0.00,VWS V14.01,2014-01-02 12:25:00,
2014-01-02 06:30:00,-6.9,-20.2,29.03,NNW,338,4.3,6.5,51,0.00,,,0.00,VWS V14.01,2014-01-02 12:30:00,
2014-01-02 06:35:00,-6.9,-20.2,29.00,NNW,338,3.8,6.0,51,0.00,,,0.00,VWS V14.01,2014-01-02 12:35:00,
2014-01-02 06:40:00,-6.9,-20.2,29.00,NNW,338,6.0,6.0,51,0.00,,,0.00,VWS V14.01,2014-01-02 12:40:00,
2014-01-02 06:45:00,-7.2,-20.6,29.00,NNW,338,3.8,6.0,51,0.00,,,0.00,VWS V14.01,2014-01-02 12:45:00,
2014-01-02 06:50:00,-7.2,-20.6,29.03,NNW,338,4.7,5.6,51,0.00,,,0.00,VWS V14.01,2014-01-02 12:50:00,
2014-01-02 06:55:00,-7.6,-20.9,29.03,NNW,338,6.0,6.0,51,0.00,,,0.00,VWS V14.01,2014-01-02 12:55:00,
2014-01-02 07:00:00,-7.4,-20.8,29.03,NNE,22,3.4,7.4,51,0.00,,,0.00,VWS V14.01,2014-01-02 13:00:00,
2014-01-02 07:05:00,-7.8,-21.1,29.03,NNW,338,3.4,6.3,51,0.00,,,0.00,VWS V14.01,2014-01-02 13:05:00,
2014-01-02 07:10:00,-7.8,-21.1,29.03,NNW,338,4.3,4.7,51,0.00,,,0.00,VWS V14.01,2014-01-02 13:10:00,
2014-01-02 07:15:00,-7.6,-20.9,29.03,NNW,338,4.3,6.3,51,0.00,,,0.00,VWS V14.01,2014-01-02 13:15:00,
2014-01-02 07:20:00,-7.8,-21.1,29.03,NNW,338,3.6,5.8,51,0.00,,,0.00,VWS V14.01,2014-01-02 13:20:00,
2014-01-02 07:25:00,-8.0,-21.2,29.03,NNW,338,4.5,5.8,51,0.00,,,0.00,VWS V14.01,2014-01-02 13:25:00,
2014-01-02 07:30:00,-8.0,-21.2,29.03,NNW,338,5.4,5.4,51,0.00,,,0.00,VWS V14.01,2014-01-02 13:30:00,
2014-01-02 07:35:00,-8.0,-21.2,29.03,NNW,338,3.4,5.4,51,0.00,,,0.00,VWS V14.01,2014-01-02 13:35:00,
2014-01-02 07:40:00,-8.1,-21.4,29.03,NNW,338,3.6,4.3,51,0.00,,,0.00,VWS V14.01,2014-01-02 13:40:00,
2014-01-02 07:45:00,-8.3,-21.6,29.03,NNW,338,3.4,4.3,51,0.00,,,0.00,VWS V14.01,2014-01-02 13:45:00,
2014-01-02 07:50:00,-8.1,-21.4,29.03,NNW,338,2.7,4.0,51,0.00,,,0.00,VWS V14.01,2014-01-02 13:50:00,
2014-01-02 07:55:00,-8.3,-21.6,29.03,NW,315,2.5,4.0,51,0.00,,,0.00,VWS V14.01,2014-01-02 13:55:00,
2014-01-02 08:00:00,-8.5,-21.8,29.03,NW,315,2.0,4.3,51,0.00,,,0.00,VWS V14.01,2014-01-02 14:00:00,
2014-01-02 08:05:00,-8.0,-21.2,29.03,WNW,292,2.9,4.3,51,0.00,,,0.00,VWS V14.01,2014-01-02 14:05:00,
2014-01-02 08:10:00,-7.1,-20.4,29.03,NNW,338,2.7,5.6,51,0.00,,,0.00,VWS V14.01,2014-01-02 14:10:00,
2014-01-02 08:15:00,-6.3,-19.7,29.03,NNW,338,2.5,4.9,51,0.00,,,0.00,VWS V14.01,2014-01-02 14:15:00,
2014-01-02 08:20:00,-5.8,-19.2,29.03,WNW,292,2.9,6.0,51,0.00,,,0.00,VWS V14.01,2014-01-02 14:20:00,
2014-01-02 08:25:00,-5.1,-18.6,29.03,NW,315,2.9,3.6,51,0.00,,,0.00,VWS V14.01,2014-01-02 14:25:00,
2014-01-02 08:30:00,-4.4,-17.9,29.03,NW,315,1.3,4.3,51,0.00,,,0.00,VWS V14.01,2014-01-02 14:30:00,
2014-01-02 08:35:00,-3.8,-17.4,29.06,NNE,22,2.7,4.7,51,0.00,,,0.00,VWS V14.01,2014-01-02 14:35:00,
2014-01-02 08:40:00,-3.5,-17.0,29.06,North,0,3.6,4.3,51,0.00,,,0.00,VWS V14.01,2014-01-02 14:40:00,
2014-01-02 08:45:00,-3.6,-17.2,29.06,NNW,338,5.4,5.4,51,0.00,,,0.00,VWS V14.01,2014-01-02 14:45:00,
2014-01-02 08:50:00,-4.0,-17.5,29.06,NNW,338,4.3,6.3,51,0.00,,,0.00,VWS V14.01,2014-01-02 14:50:00,
2014-01-02 08:55:00,-3.8,-17.4,29.06,NNW,338,5.4,5.4,51,0.00,,,0.00,VWS V14.01,2014-01-02 14:55:00,
2014-01-02 09:00:00,-3.6,-17.2,29.06,NNW,338,6.3,6.3,51,0.00,,,0.00,VWS V14.01,2014-01-02 15:00:00,
2014-01-02 09:05:00,-3.5,-17.0,29.09,NNW,338,5.4,6.3,51,0.00,,,0.00,VWS V14.01,2014-01-02 15:05:00,
2014-01-02 09:10:00,-3.3,-16.9,29.09,NNW,338,4.7,6.3,51,0.00,,,0.00,VWS V14.01,2014-01-02 15:10:00,
2014-01-02 09:15:00,-3.1,-16.7,29.09,NW,315,4.0,7.4,51,0.00,,,0.00,VWS V14.01,2014-01-02 15:15:00,
2014-01-02 09:20:00,-2.6,-16.2,29.09,NNE,22,4.3,6.5,51,0.00,,,0.00,VWS V14.01,2014-01-02 15:20:00,
2014-01-02 09:25:00,-2.0,-15.7,29.09,NNW,338,5.4,6.3,51,0.00,,,0.00,VWS V14.01,2014-01-02 15:25:00,
2014-01-02 09:30:00,-1.7,-15.4,29.09,NNW,338,2.7,6.5,51,0.00,,,0.00,VWS V14.01,2014-01-02 15:30:00,
2014-01-02 09:35:00,-1.3,-15.0,29.09,NNW,338,5.4,5.6,51,0.00,,,0.00,VWS V14.01,2014-01-02 15:35:00,
2014-01-02 09:40:00,-0.9,-14.7,29.09,NNW,338,2.9,5.8,51,0.00,,,0.00,VWS V14.01,2014-01-02 15:40:00,
2014-01-02 09:45:00,-0.8,-14.5,29.09,NNW,338,3.8,5.8,51,0.00,,,0.00,VWS V14.01,2014-01-02 15:45:00,
2014-01-02 09:50:00,0.3,-13.5,29.09,NNW,338,4.3,5.6,51,0.00,,,0.00,VWS V14.01,2014-01-02 15:50:00,
2014-01-02 09:55:00,0.3,-13.5,29.09,NNW,338,4.5,4.9,51,0.00,,,0.00,VWS V14.01,2014-01-02 15:55:00,
2014-01-02 10:00:00,0.1,-13.7,29.09,NNW,338,4.7,6.3,51,0.00,,,0.00,VWS V14.01,2014-01-02 16:00:00,
2014-01-02 10:05:00,0.9,-13.0,29.09,NNW,338,4.0,6.0,51,0.00,,,0.00,VWS V14.01,2014-01-02 16:05:00,
2014-01-02 10:10:00,0.3,-13.5,29.09,NNW,338,4.0,8.1,51,0.00,,,0.00,VWS V14.01,2014-01-02 16:10:00,
2014-01-02 10:15:00,0.5,-13.4,29.09,NW,315,4.3,6.0,51,0.00,,,0.00,VWS V14.01,2014-01-02 16:15:00,
2014-01-02 10:20:00,0.7,-13.2,29.09,NW,315,4.3,5.8,51,0.00,,,0.00,VWS V14.01,2014-01-02 16:20:00,
2014-01-02 10:25:00,1.2,-12.7,29.09,NNW,338,3.8,6.3,51,0.00,,,0.00,VWS V14.01,2014-01-02 16:25:00,
2014-01-02 10:30:00,1.9,-12.0,29.09,NNW,338,6.5,6.5,51,0.00,,,0.00,VWS V14.01,2014-01-02 16:30:00,
2014-01-02 10:35:00,2.1,-11.9,29.09,NNW,338,5.4,7.4,51,0.00,,,0.00,VWS V14.01,2014-01-02 16:35:00,
2014-01-02 10:40:00,2.7,-11.3,29.09,NNE,22,3.1,7.4,51,0.00,,,0.00,VWS V14.01,2014-01-02 16:40:00,
2014-01-02 10:45:00,2.8,-11.2,29.09,NNW,338,3.8,5.8,51,0.00,,,0.00,VWS V14.01,2014-01-02 16:45:00,
2014-01-02 10:50:00,3.2,-10.8,29.09,NNW,338,4.9,5.8,51,0.00,,,0.00,VWS V14.01,2014-01-02 16:50:00,
2014-01-02 10:55:00,3.7,-10.3,29.09,NNW,338,5.4,5.4,51,0.00,,,0.00,VWS V14.01,2014-01-02 16:55:00,
2014-01-02 11:00:00,3.4,-10.7,29.09,NNW,338,5.4,6.5,51,0.00,,,0.00,VWS V14.01,2014-01-02 17:00:00,
2014-01-02 11:05:00,4.1,-10.0,29.09,NNW,338,4.3,6.7,51,0.00,,,0.00,VWS V14.01,2014-01-02 17:05:00,
2014-01-02 11:10:00,3.7,-10.3,29.09,NNW,338,4.7,6.3,51,0.00,,,0.00,VWS V14.01,2014-01-02 17:10:00,
2014-01-02 11:15:00,4.1,-10.0,29.09,NNE,22,4.0,7.2,51,0.00,,,0.00,VWS V14.01,2014-01-02 17:15:00,
2014-01-02 11:20:00,4.1,-10.0,29.09,NNW,338,4.9,5.4,51,0.00,,,0.00,VWS V14.01,2014-01-02 17:20:00,
2014-01-02 11:25:00,5.0,-9.2,29.09,NNW,338,3.8,6.9,51,0.00,,,0.00,VWS V14.01,2014-01-02 17:25:00,
2014-01-02 11:30:00,5.4,-8.8,29.09,NNW,338,3.1,5.8,51,0.00,,,0.00,VWS V14.01,2014-01-02 17:30:00,
2014-01-02 11:35:00,5.9,-8.3,29.09,NNW,338,6.0,6.5,51,0.00,,,0.00,VWS V14.01,2014-01-02 17:35:00,
2014-01-02 11:40:00,5.5,-8.7,29.09,NNW,338,4.9,6.5,51,0.00,,,0.00,VWS V14.01,2014-01-02 17:40:00,
2014-01-02 11:45:00,6.3,-8.0,29.09,NNW,338,2.9,6.3,51,0.00,,,0.00,VWS V14.01,2014-01-02 17:45:00,
2014-01-02 11:50:00,5.5,-8.7,29.09,NNW,338,2.9,6.7,51,0.00,,,0.00,VWS V14.01,2014-01-02 17:50:00,
2014-01-02 11:55:00,6.3,-8.0,29.09,NNE,22,4.0,5.6,51,0.00,,,0.00,VWS V14.01,2014-01-02 17:55:00,
2014-01-02 12:00:00,6.3,-8.0,29.09,NNW,338,5.6,6.3,51,0.00,,,0.00,VWS V14.01,2014-01-02 18:00:00,
2014-01-02 12:05:00,6.3,-8.0,29.09,NNW,338,3.8,6.5,51,0.00,,,0.00,VWS V14.01,2014-01-02 18:05:00,
2014-01-02 12:10:00,7.2,-7.2,29.09,NNE,22,7.2,7.2,51,0.00,,,0.00,VWS V14.01,2014-01-02 18:10:00,
2014-01-02 12:14:00,7.7,-6.7,29.09,NNW,338,3.4,7.2,51,0.00,,,0.00,VWS V14.01,2014-01-02 18:14:00,
2014-01-02 12:15:00,7.7,-6.7,29.09,NNW,338,3.4,7.2,51,0.00,,,0.00,VWS V14.01,2014-01-02 18:15:00,
2014-01-02 12:20:00,6.3,-8.0,29.09,NNW,338,4.5,6.5,51,0.00,,,0.00,VWS V14.01,2014-01-02 18:20:00,
2014-01-02 12:25:00,7.5,-6.8,29.09,NNW,338,3.8,5.4,51,0.00,,,0.00,VWS V14.01,2014-01-02 18:25:00,
2014-01-02 12:30:00,7.9,-6.5,29.09,NNW,338,2.5,6.3,51,0.00,,,0.00,VWS V14.01,2014-01-02 18:30:00,
2014-01-02 12:35:00,7.7,-6.7,29.09,NNW,338,5.8,5.8,51,0.00,,,0.00,VWS V14.01,2014-01-02 18:35:00,
2014-01-02 12:39:00,8.2,-6.2,29.09,NNW,338,3.6,5.8,51,0.00,,,0.00,VWS V14.01,2014-01-02 18:39:00,
2014-01-02 12:40:00,8.2,-6.1,29.09,NNW,338,3.6,5.8,51,0.00,,,0.00,VWS V14.01,2014-01-02 18:40:00,
2014-01-02 12:45:00,8.1,-6.3,29.09,NNW,338,3.1,6.3,51,0.00,,,0.00,VWS V14.01,2014-01-02 18:45:00,
2014-01-02 12:50:00,9.1,-5.3,29.09,NNW,338,4.0,6.0,51,0.00,,,0.00,VWS V14.01,2014-01-02 18:50:00,
2014-01-02 12:55:00,7.7,-6.7,29.06,NNW,338,5.4,5.4,51,0.00,,,0.00,VWS V14.01,2014-01-02 18:55:00,
2014-01-02 13:00:00,7.5,-6.8,29.06,NNE,22,4.9,6.5,51,0.00,,,0.00,VWS V14.01,2014-01-02 19:00:00,
2014-01-02 13:05:00,7.7,-6.7,29.06,NNW,338,4.3,6.0,51,0.00,,,0.00,VWS V14.01,2014-01-02 19:05:00,
2014-01-02 13:10:00,6.6,-7.7,29.06,NW,315,5.6,7.2,51,0.00,,,0.00,VWS V14.01,2014-01-02 19:10:00,
2014-01-02 13:15:00,7.0,-7.3,29.06,NNW,338,4.3,8.1,51,0.00,,,0.00,VWS V14.01,2014-01-02 19:15:00,
2014-01-02 13:20:00,6.4,-7.8,29.06,NNW,338,6.0,7.6,51,0.00,,,0.00,VWS V14.01,2014-01-02 19:20:00,
2014-01-02 13:25:00,7.0,-7.3,29.06,NNW,338,4.3,6.5,51,0.00,,,0.00,VWS V14.01,2014-01-02 19:25:00,
2014-01-02 13:30:00,7.5,-6.8,29.06,NNW,338,5.8,6.5,51,0.00,,,0.00,VWS V14.01,2014-01-02 19:30:00,
2014-01-02 13:35:00,7.2,-7.2,29.06,NNW,338,5.6,7.6,51,0.00,,,0.00,VWS V14.01,2014-01-02 19:35:00,
2014-01-02 13:40:00,6.8,-7.5,29.06,NNW,338,3.8,6.0,51,0.00,,,0.00,VWS V14.01,2014-01-02 19:40:00,
2014-01-02 13:45:00,7.5,-6.8,29.06,NNW,338,5.4,6.0,51,0.00,,,0.00,VWS V14.01,2014-01-02 19:45:00,
2014-01-02 13:50:00,7.2,-7.2,29.06,NNW,338,3.6,6.5,51,0.00,,,0.00,VWS V14.01,2014-01-02 19:50:00,
2014-01-02 13:55:00,7.0,-7.3,29.06,NNW,338,5.8,6.0,51,0.00,,,0.00,VWS V14.01,2014-01-02 19:55:00,
2014-01-02 14:00:00,7.0,-7.3,29.06,NNW,338,5.4,6.5,51,0.00,,,0.00,VWS V14.01,2014-01-02 20:00:00,
2014-01-02 14:05:00,6.8,-7.5,29.06,NNW,338,2.7,6.9,51,0.00,,,0.00,VWS V14.01,2014-01-02 20:05:00,
2014-01-02 14:10:00,7.0,-7.3,29.06,NNW,338,3.4,6.0,51,0.00,,,0.00,VWS V14.01,2014-01-02 20:10:00,
2014-01-02 14:15:00,7.0,-7.3,29.06,NNW,338,3.4,5.8,51,0.00,,,0.00,VWS V14.01,2014-01-02 20:15:00,
2014-01-02 14:20:00,7.0,-7.3,29.06,NNW,338,3.4,6.0,51,0.00,,,0.00,VWS V14.01,2014-01-02 20:20:00,
2014-01-02 14:25:00,8.1,-6.3,29.06,NNW,338,4.7,5.6,51,0.00,,,0.00,VWS V14.01,2014-01-02 20:25:00,
2014-01-02 14:30:00,9.0,-5.5,29.06,ENE,68,4.9,6.0,51,0.00,,,0.00,VWS V14.01,2014-01-02 20:30:00,
2014-01-02 14:35:00,7.0,-7.3,29.06,NNW,338,3.8,6.0,51,0.00,,,0.00,VWS V14.01,2014-01-02 20:35:00,
2014-01-02 14:40:00,6.8,-7.5,29.06,NNW,338,3.6,6.3,51,0.00,,,0.00,VWS V14.01,2014-01-02 20:40:00,
2014-01-02 14:45:00,7.0,-7.3,29.06,NNE,22,3.6,6.3,51,0.00,,,0.00,VWS V14.01,2014-01-02 20:45:00,
2014-01-02 14:50:00,7.0,-7.3,29.06,NNW,338,3.6,5.6,51,0.00,,,0.00,VWS V14.01,2014-01-02 20:50:00,
2014-01-02 14:55:00,7.0,-7.3,29.06,NNW,338,6.3,6.3,51,0.00,,,0.00,VWS V14.01,2014-01-02 20:55:00,
2014-01-02 15:00:00,6.8,-7.5,29.06,NNW,338,4.3,6.3,51,0.00,,,0.00,VWS V14.01,2014-01-02 21:00:00,
2014-01-02 15:05:00,7.5,-6.8,29.06,NNW,338,3.6,5.8,51,0.00,,,0.00,VWS V14.01,2014-01-02 21:05:00,
2014-01-02 15:09:00,8.1,-6.3,29.06,NNW,338,3.4,5.4,51,0.00,,,0.00,VWS V14.01,2014-01-02 21:09:00,
2014-01-02 15:10:00,8.1,-6.3,29.06,NNW,338,3.4,5.4,51,0.00,,,0.00,VWS V14.01,2014-01-02 21:10:00,
2014-01-02 15:15:00,7.2,-7.2,29.06,NNW,338,3.1,5.4,51,0.00,,,0.00,VWS V14.01,2014-01-02 21:15:00,
2014-01-02 15:20:00,7.3,-7.0,29.06,NNW,338,3.1,5.4,51,0.00,,,0.00,VWS V14.01,2014-01-02 21:20:00,
2014-01-02 15:25:00,6.6,-7.7,29.06,NNW,338,4.3,6.3,51,0.00,,,0.00,VWS V14.01,2014-01-02 21:25:00,
2014-01-02 15:30:00,7.0,-7.3,29.06,NNW,338,3.4,5.4,51,0.00,,,0.00,VWS V14.01,2014-01-02 21:30:00,
2014-01-02 15:35:00,7.2,-7.2,29.06,North,0,4.3,4.3,51,0.00,,,0.00,VWS V14.01,2014-01-02 21:35:00,
2014-01-02 15:40:00,7.3,-7.0,29.06,NNW,338,2.7,4.9,51,0.00,,,0.00,VWS V14.01,2014-01-02 21:40:00,
2014-01-02 15:45:00,7.9,-6.5,29.06,NNE,22,4.0,4.0,51,0.00,,,0.00,VWS V14.01,2014-01-02 21:45:00,
2014-01-02 15:50:00,8.1,-6.3,29.09,NNE,22,2.5,4.0,51,0.00,,,0.00,VWS V14.01,2014-01-02 21:50:00,
2014-01-02 15:55:00,7.7,-6.7,29.09,NE,45,3.8,3.8,51,0.00,,,0.00,VWS V14.01,2014-01-02 21:55:00,
2014-01-02 16:00:00,7.7,-6.7,29.09,North,0,2.0,3.8,51,0.00,,,0.00,VWS V14.01,2014-01-02 22:00:00,
2014-01-02 16:05:00,7.5,-6.8,29.09,NNE,22,2.5,4.9,51,0.00,,,0.00,VWS V14.01,2014-01-02 22:05:00,
2014-01-02 16:10:00,7.5,-6.8,29.09,NE,45,2.5,2.9,51,0.00,,,0.00,VWS V14.01,2014-01-02 22:10:00,
2014-01-02 16:15:00,6.8,-7.5,29.09,NNE,22,1.3,3.1,51,0.00,,,0.00,VWS V14.01,2014-01-02 22:15:00,
2014-01-02 16:20:00,6.3,-8.0,29.09,NNW,338,2.0,2.9,51,0.00,,,0.00,VWS V14.01,2014-01-02 22:20:00,
2014-01-02 16:25:00,4.3,-9.8,29.09,NNW,338,2.2,3.1,51,0.00,,,0.00,VWS V14.01,2014-01-02 22:25:00,
2014-01-02 16:30:00,3.9,-10.2,29.09,NNW,338,2.0,2.7,51,0.00,,,0.00,VWS V14.01,2014-01-02 22:30:00,
2014-01-02 16:34:00,2.1,-11.9,29.09,NNW,338,2.5,2.5,51,0.00,,,0.00,VWS V14.01,2014-01-02 22:34:00,
2014-01-02 16:35:00,2.1,-11.9,29.09,NNW,338,2.5,2.5,51,0.00,,,0.00,VWS V14.01,2014-01-02 22:35:00,
2014-01-02 16:40:00,1.6,-12.4,29.09,NNW,338,2.0,2.9,51,0.00,,,0.00,VWS V14.01,2014-01-02 22:40:00,
2014-01-02 16:45:00,0.1,-13.7,29.09,NNW,338,2.5,2.9,51,0.00,,,0.00,VWS V14.01,2014-01-02 22:45:00,
2014-01-02 16:50:00,-1.5,-15.2,29.09,NNW,338,2.0,2.5,51,0.00,,,0.00,VWS V14.01,2014-01-02 22:50:00,
2014-01-02 16:54:00,-2.6,-16.2,29.09,NNW,338,2.5,2.7,51,0.00,,,0.00,VWS V14.01,2014-01-02 22:54:00,
2014-01-02 16:55:00,-2.6,-16.2,29.09,NNW,338,2.5,2.7,51,0.00,,,0.00,VWS V14.01,2014-01-02 22:55:00,
2014-01-02 17:00:00,-3.8,-17.4,29.09,NNW,338,1.1,2.7,51,0.00,,,0.00,VWS V14.01,2014-01-02 23:00:00,
2014-01-02 17:05:00,-4.7,-18.2,29.09,NNW,338,0.0,1.1,51,0.00,,,0.00,VWS V14.01,2014-01-02 23:05:00,
2014-01-02 17:10:00,-6.2,-19.6,29.09,NNW,338,2.0,2.7,51,0.00,,,0.00,VWS V14.01,2014-01-02 23:10:00,
2014-01-02 17:15:00,-6.3,-19.7,29.09,NNW,338,2.7,2.9,51,0.00,,,0.00,VWS V14.01,2014-01-02 23:15:00,
2014-01-02 17:20:00,-7.1,-20.4,29.12,NNW,338,2.9,3.4,51,0.00,,,0.00,VWS V14.01,2014-01-02 23:20:00,
2014-01-02 17:25:00,-8.0,-21.2,29.12,NNW,338,2.0,3.1,51,0.00,,,0.00,VWS V14.01,2014-01-02 23:25:00,
2014-01-02 17:30:00,-9.0,-22.3,29.11,NNW,338,0.0,2.2,51,0.00,,,0.00,VWS V14.01,2014-01-02 23:30:00,
2014-01-02 17:34:00,-9.6,-22.8,29.12,NNE,22,1.1,1.6,51,0.00,,,0.00,VWS V14.01,2014-01-02 23:34:00,
2014-01-02 17:35:00,-9.6,-22.8,29.11,NNE,22,1.1,1.6,51,0.00,,,0.00,VWS V14.01,2014-01-02 23:35:00,
2014-01-02 17:40:00,-9.6,-22.8,29.09,NNE,22,0.0,2.0,51,0.00,,,0.00,VWS V14.01,2014-01-02 23:40:00,
2014-01-02 17:45:00,-9.9,-23.1,29.09,NNE,22,0.0,0.0,51,0.00,,,0.00,VWS V14.01,2014-01-02 23:45:00,
2014-01-02 17:50:00,-10.5,-23.6,29.09,NE,45,1.1,2.7,51,0.00,,,0.00,VWS V14.01,2014-01-02 23:50:00,
2014-01-02 17:55:00,-11.0,-24.1,29.09,NE,45,1.3,1.3,51,0.00,,,0.00,VWS V14.01,2014-01-02 23:55:00,
2014-01-02 18:00:00,-11.7,-24.8,29.09,NNE,22,1.1,2.0,51,0.00,,,0.00,VWS V14.01,2014-01-03 00:00:00,
2014-01-02 18:05:00,-11.4,-24.4,29.09,NNW,338,1.6,2.0,51,0.00,,,0.00,VWS V14.01,2014-01-03 00:05:00,
2014-01-02 18:10:00,-12.3,-25.3,29.09,NNW,338,0.0,2.5,51,0.00,,,0.00,VWS V14.01,2014-01-03 00:10:00,
2014-01-02 18:15:00,-12.6,-25.6,29.09,NNE,22,2.5,2.5,51,0.00,,,0.00,VWS V14.01,2014-01-03 00:15:00,
2014-01-02 18:20:00,-11.7,-24.8,29.09,NE,45,2.7,3.4,51,0.00,,,0.00,VWS V14.01,2014-01-03 00:20:00,
2014-01-02 18:25:00,-11.6,-24.6,29.09,NNE,22,2.5,3.1,51,0.00,,,0.00,VWS V14.01,2014-01-03 00:25:00,
2014-01-02 18:30:00,-11.9,-25.0,29.09,NNE,22,2.7,2.9,51,0.00,,,0.00,VWS V14.01,2014-01-03 00:30:00,
2014-01-02 18:35:00,-10.8,-23.9,29.09,NNE,22,4.3,4.3,51,0.00,,,0.00,VWS V14.01,2014-01-03 00:35:00,
2014-01-02 18:40:00,-10.1,-23.3,29.09,ENE,68,2.0,4.5,51,0.00,,,0.00,VWS V14.01,2014-01-03 00:40:00,
2014-01-02 18:45:00,-10.8,-23.9,29.09,ENE,68,2.7,3.1,51,0.00,,,0.00,VWS V14.01,2014-01-03 00:45:00,
2014-01-02 18:50:00,-11.2,-24.3,29.09,East,90,2.5,2.9,51,0.00,,,0.00,VWS V14.01,2014-01-03 00:50:00,
2014-01-02 18:55:00,-11.9,-25.0,29.09,ESE,112,0.0,2.5,51,0.00,,,0.00,VWS V14.01,2014-01-03 00:55:00,
2014-01-02 19:00:00,-12.3,-25.3,29.09,ESE,112,1.3,1.6,51,0.00,,,0.00,VWS V14.01,2014-01-03 01:00:00,
2014-01-02 19:05:00,-12.8,-25.8,29.06,ENE,68,3.1,3.1,51,0.00,,,0.00,VWS V14.01,2014-01-03 01:05:00,
2014-01-02 19:10:00,-12.5,-25.5,29.06,ENE,68,2.7,3.1,51,0.00,,,0.00,VWS V14.01,2014-01-03 01:10:00,
2014-01-02 19:15:00,-11.7,-24.8,29.06,ENE,68,1.3,2.7,51,0.00,,,0.00,VWS V14.01,2014-01-03 01:15:00,
2014-01-02 19:19:00,-11.7,-24.8,29.06,ENE,68,2.9,2.9,51,0.00,,,0.00,VWS V14.01,2014-01-03 01:19:00,
2014-01-02 19:20:00,-11.7,-24.8,29.06,ENE,68,2.9,2.9,51,0.00,,,0.00,VWS V14.01,2014-01-03 01:20:00,
2014-01-02 19:24:00,-11.9,-25.0,29.06,ENE,68,1.1,2.9,51,0.00,,,0.00,VWS V14.01,2014-01-03 01:24:00,
2014-01-02 19:25:00,-11.9,-25.0,29.06,ENE,68,1.1,2.9,51,0.00,,,0.00,VWS V14.01,2014-01-03 01:25:00,
2014-01-02 19:29:00,-12.5,-25.5,29.06,NW,315,2.7,2.7,51,0.00,,,0.00,VWS V14.01,2014-01-03 01:29:00,
2014-01-02 19:30:00,-12.5,-25.5,29.06,NW,315,2.7,2.7,51,0.00,,,0.00,VWS V14.01,2014-01-03 01:30:00,
2014-01-02 19:34:00,-13.2,-26.1,29.06,WNW,292,2.5,3.6,51,0.00,,,0.00,VWS V14.01,2014-01-03 01:34:00,
2014-01-02 19:35:00,-13.2,-26.1,29.06,WNW,292,2.5,3.6,51,0.00,,,0.00,VWS V14.01,2014-01-03 01:35:00,
2014-01-02 19:39:00,-13.7,-26.6,29.09,WNW,292,0.0,2.5,51,0.00,,,0.00,VWS V14.01,2014-01-03 01:39:00,
2014-01-02 19:40:00,-13.7,-26.6,29.09,WNW,292,0.0,2.5,51,0.00,,,0.00,VWS V14.01,2014-01-03 01:40:00,
2014-01-02 19:44:00,-14.1,-27.0,29.09,WNW,292,2.0,2.0,51,0.00,,,0.00,VWS V14.01,2014-01-03 01:44:00,
2014-01-02 19:45:00,-14.1,-27.0,29.09,WNW,292,2.0,2.0,51,0.00,,,0.00,VWS V14.01,2014-01-03 01:45:00,
2014-01-02 19:49:00,-14.4,-27.3,29.09,WNW,292,1.1,2.0,51,0.00,,,0.00,VWS V14.01,2014-01-03 01:49:00,
2014-01-02 19:50:00,-14.4,-27.3,29.09,WNW,292,1.1,2.0,51,0.00,,,0.00,VWS V14.01,2014-01-03 01:50:00,
2014-01-02 19:54:00,-14.8,-27.6,29.09,WNW,292,1.6,1.6,51,0.00,,,0.00,VWS V14.01,2014-01-03 01:54:00,
2014-01-02 19:55:00,-14.8,-27.6,29.09,WNW,292,1.6,1.6,51,0.00,,,0.00,VWS V14.01,2014-01-03 01:55:00,
2014-01-02 19:59:00,-15.3,-28.1,29.09,WNW,292,2.2,2.2,51,0.00,,,0.00,VWS V14.01,2014-01-03 01:59:00,
2014-01-02 20:00:00,-15.3,-28.1,29.09,WNW,292,2.2,2.2,51,0.00,,,0.00,VWS V14.01,2014-01-03 02:00:00,
2014-01-02 20:04:00,-15.0,-27.8,29.09,WNW,292,1.3,2.2,51,0.00,,,0.00,VWS V14.01,2014-01-03 02:04:00,
2014-01-02 20:05:00,-15.0,-27.8,29.09,WNW,292,1.3,2.2,51,0.00,,,0.00,VWS V14.01,2014-01-03 02:05:00,
2014-01-02 20:09:00,-15.0,-27.8,29.06,WNW,292,0.0,1.3,51,0.00,,,0.00,VWS V14.01,2014-01-03 02:09:00,
2014-01-02 20:10:00,-15.0,-27.8,29.06,WNW,292,0.0,1.3,51,0.00,,,0.00,VWS V14.01,2014-01-03 02:10:00,
2014-01-02 20:14:00,-15.3,-28.1,29.06,WNW,292,0.0,0.0,51,0.00,,,0.00,VWS V14.01,2014-01-03 02:14:00,
2014-01-02 20:15:00,-15.3,-28.1,29.06,WNW,292,0.0,0.0,51,0.00,,,0.00,VWS V14.01,2014-01-03 02:15:00,
2014-01-02 20:19:00,-15.5,-28.3,29.06,WNW,292,0.0,0.0,51,0.00,,,0.00,VWS V14.01,2014-01-03 02:19:00,
2014-01-02 20:20:00,-15.5,-28.3,29.06,WNW,292,0.0,0.0,51,0.00,,,0.00,VWS V14.01,2014-01-03 02:20:00,
2014-01-02 20:24:00,-16.1,-28.8,29.06,WNW,292,0.0,0.0,51,0.00,,,0.00,VWS V14.01,2014-01-03 02:24:00,
2014-01-02 20:25:00,-16.1,-28.8,29.06,WNW,292,0.0,0.0,51,0.00,,,0.00,VWS V14.01,2014-01-03 02:25:00,
2014-01-02 20:29:00,-16.2,-29.0,29.06,WNW,292,0.0,0.0,51,0.00,,,0.00,VWS V14.01,2014-01-03 02:29:00,
2014-01-02 20:30:00,-16.2,-29.0,29.06,WNW,292,0.0,0.0,51,0.00,,,0.00,VWS V14.01,2014-01-03 02:30:00,
2014-01-02 20:34:00,-16.4,-29.2,29.06,WNW,292,0.0,0.0,51,0.00,,,0.00,VWS V14.01,2014-01-03 02:34:00,
2014-01-02 20:35:00,-16.4,-29.2,29.06,WNW,292,0.0,0.0,51,0.00,,,0.00,VWS V14.01,2014-01-03 02:35:00,
2014-01-02 20:39:00,-16.4,-29.2,29.06,WNW,292,0.0,0.0,51,0.00,,,0.00,VWS V14.01,2014-01-03 02:39:00,
2014-01-02 20:40:00,-16.4,-29.2,29.06,WNW,292,0.0,0.0,51,0.00,,,0.00,VWS V14.01,2014-01-03 02:40:00,
2014-01-02 20:44:00,-16.8,-29.5,29.06,WNW,292,0.0,0.0,51,0.00,,,0.00,VWS V14.01,2014-01-03 02:44:00,
2014-01-02 20:45:00,-16.8,-29.5,29.06,WNW,292,0.0,0.0,51,0.00,,,0.00,VWS V14.01,2014-01-03 02:45:00,
2014-01-02 20:49:00,-17.0,-29.7,29.06,WNW,292,0.0,0.0,51,0.00,,,0.00,VWS V14.01,2014-01-03 02:49:00,
2014-01-02 20:50:00,-17.0,-29.7,29.06,WNW,292,0.0,0.0,51,0.00,,,0.00,VWS V14.01,2014-01-03 02:50:00,
2014-01-02 20:54:00,-17.1,-29.8,29.06,WNW,292,0.0,0.0,51,0.00,,,0.00,VWS V14.01,2014-01-03 02:54:00,
2014-01-02 20:55:00,-17.1,-29.8,29.06,WNW,292,0.0,0.0,51,0.00,,,0.00,VWS V14.01,2014-01-03 02:55:00,
2014-01-02 20:59:00,-17.0,-29.7,29.06,WNW,292,0.0,0.0,51,0.00,,,0.00,VWS V14.01,2014-01-03 02:59:00,
2014-01-02 21:00:00,-17.0,-29.7,29.06,WNW,292,0.0,0.0,51,0.00,,,0.00,VWS V14.01,2014-01-03 03:00:00,
2014-01-02 21:04:00,-16.6,-29.3,29.06,WNW,292,0.0,0.0,51,0.00,,,0.00,VWS V14.01,2014-01-03 03:04:00,
2014-01-02 21:05:00,-16.6,-29.3,29.06,WNW,292,0.0,0.0,51,0.00,,,0.00,VWS V14.01,2014-01-03 03:05:00,
2014-01-02 21:09:00,-16.1,-28.8,29.06,WNW,292,0.0,0.0,51,0.00,,,0.00,VWS V14.01,2014-01-03 03:09:00,
2014-01-02 21:10:00,-16.1,-28.8,29.06,WNW,292,0.0,0.0,51,0.00,,,0.00,VWS V14.01,2014-01-03 03:10:00,
2014-01-02 21:14:00,-15.9,-28.6,29.06,NE,45,0.0,0.0,51,0.00,,,0.00,VWS V14.01,2014-01-03 03:14:00,
2014-01-02 21:15:00,-15.9,-28.6,29.06,NE,45,0.0,0.0,51,0.00,,,0.00,VWS V14.01,2014-01-03 03:15:00,
2014-01-02 21:19:00,-15.5,-28.3,29.06,NE,45,1.6,2.0,51,0.00,,,0.00,VWS V14.01,2014-01-03 03:19:00,
2014-01-02 21:20:00,-15.5,-28.3,29.06,NE,45,1.6,2.0,51,0.00,,,0.00,VWS V14.01,2014-01-03 03:20:00,
2014-01-02 21:24:00,-15.2,-28.0,29.06,NE,45,1.1,2.0,51,0.00,,,0.00,VWS V14.01,2014-01-03 03:24:00,
2014-01-02 21:25:00,-15.2,-28.0,29.06,NE,45,1.1,2.0,51,0.00,,,0.00,VWS V14.01,2014-01-03 03:25:00,
2014-01-02 21:29:00,-15.3,-28.1,29.06,ENE,68,2.9,2.9,51,0.00,,,0.00,VWS V14.01,2014-01-03 03:29:00,
2014-01-02 21:30:00,-15.3,-28.1,29.06,ENE,68,2.9,2.9,51,0.00,,,0.00,VWS V14.01,2014-01-03 03:30:00,
2014-01-02 21:34:00,-14.8,-27.6,29.06,ESE,112,2.7,3.4,51,0.00,,,0.00,VWS V14.01,2014-01-03 03:34:00,
2014-01-02 21:35:00,-14.8,-27.6,29.06,ESE,112,2.7,3.4,51,0.00,,,0.00,VWS V14.01,2014-01-03 03:35:00,
2014-01-02 21:39:00,-14.6,-27.5,29.06,ESE,112,1.6,2.7,51,0.00,,,0.00,VWS V14.01,2014-01-03 03:39:00,
2014-01-02 21:40:00,-14.6,-27.5,29.06,ESE,112,1.6,2.7,51,0.00,,,0.00,VWS V14.01,2014-01-03 03:40:00,
2014-01-02 21:44:00,-14.4,-27.3,29.06,ESE,112,0.0,2.0,51,0.00,,,0.00,VWS V14.01,2014-01-03 03:44:00,
2014-01-02 21:45:00,-14.4,-27.3,29.06,ESE,112,0.0,2.0,51,0.00,,,0.00,VWS V14.01,2014-01-03 03:45:00,
2014-01-02 21:49:00,-14.6,-27.5,29.06,SSE,158,2.5,3.6,51,0.00,,,0.00,VWS V14.01,2014-01-03 03:49:00,
2014-01-02 21:50:00,-14.6,-27.5,29.06,SSE,158,2.5,3.6,51,0.00,,,0.00,VWS V14.01,2014-01-03 03:50:00,
2014-01-02 21:54:00,-14.8,-27.6,29.06,SSE,158,1.6,2.5,51,0.00,,,0.00,VWS V14.01,2014-01-03 03:54:00,
2014-01-02 21:55:00,-14.8,-27.6,29.06,SSE,158,1.6,2.5,51,0.00,,,0.00,VWS V14.01,2014-01-03 03:55:00,
2014-01-02 21:59:00,-15.0,-27.8,29.06,SSE,158,2.0,2.9,51,0.00,,,0.00,VWS V14.01,2014-01-03 03:59:00,
2014-01-02 22:00:00,-15.0,-27.8,29.06,SSE,158,2.0,2.9,51,0.00,,,0.00,VWS V14.01,2014-01-03 04:00:00,
2014-01-02 22:04:00,-15.2,-28.0,29.06,SSE,158,0.0,2.2,51,0.00,,,0.00,VWS V14.01,2014-01-03 04:04:00,
2014-01-02 22:05:00,-15.2,-28.0,29.06,SSE,158,0.0,2.2,51,0.00,,,0.00,VWS V14.01,2014-01-03 04:05:00,
2014-01-02 22:09:00,-15.3,-28.1,29.06,SSE,158,1.3,1.6,51,0.00,,,0.00,VWS V14.01,2014-01-03 04:09:00,
2014-01-02 22:10:00,-15.3,-28.1,29.06,SSE,158,1.3,1.6,51,0.00,,,0.00,VWS V14.01,2014-01-03 04:10:00,
2014-01-02 22:14:00,-15.5,-28.3,29.06,South,180,0.0,2.0,51,0.00,,,0.00,VWS V14.01,2014-01-03 04:14:00,
2014-01-02 22:15:00,-15.5,-28.3,29.06,South,180,0.0,2.0,51,0.00,,,0.00,VWS V14.01,2014-01-03 04:15:00,
2014-01-02 22:19:00,-15.3,-28.1,29.06,SSW,202,2.5,2.9,51,0.00,,,0.00,VWS V14.01,2014-01-03 04:19:00,
2014-01-02 22:20:00,-15.3,-28.1,29.06,SSW,202,2.5,2.9,51,0.00,,,0.00,VWS V14.01,2014-01-03 04:20:00,
2014-01-02 22:25:00,-15.3,-28.1,29.06,South,180,3.8,3.8,51,0.00,,,0.00,VWS V14.01,2014-01-03 04:25:00,
2014-01-02 22:29:00,-15.2,-28.0,29.06,SSW,202,4.3,4.5,51,0.00,,,0.00,VWS V14.01,2014-01-03 04:29:00,
2014-01-02 22:30:00,-15.2,-28.0,29.06,SSW,202,4.3,4.5,51,0.00,,,0.00,VWS V14.01,2014-01-03 04:30:00,
2014-01-02 22:34:00,-14.8,-27.6,29.06,South,180,4.0,4.5,51,0.00,,,0.00,VWS V14.01,2014-01-03 04:34:00,
2014-01-02 22:35:00,-14.8,-27.6,29.06,South,180,4.0,4.5,51,0.00,,,0.00,VWS V14.01,2014-01-03 04:35:00,
2014-01-02 22:40:00,-14.4,-27.3,29.06,South,180,3.6,4.3,51,0.00,,,0.00,VWS V14.01,2014-01-03 04:40:00,
2014-01-02 22:44:00,-14.3,-27.1,29.06,SW,225,2.7,3.6,51,0.00,,,0.00,VWS V14.01,2014-01-03 04:44:00,
2014-01-02 22:45:00,-14.3,-27.1,29.06,SW,225,2.7,3.6,51,0.00,,,0.00,VWS V14.01,2014-01-03 04:45:00,
2014-01-02 22:50:00,-13.9,-26.8,29.06,SW,225,2.7,2.9,51,0.00,,,0.00,VWS V14.01,2014-01-03 04:50:00,
2014-01-02 22:54:00,-13.5,-26.5,29.03,SE,135,2.7,3.8,51,0.00,,,0.00,VWS V14.01,2014-01-03 04:54:00,
2014-01-02 22:55:00,-13.5,-26.5,29.03,SE,135,2.7,3.8,51,0.00,,,0.00,VWS V14.01,2014-01-03 04:55:00,
2014-01-02 22:59:00,-13.5,-26.5,29.03,SE,135,3.6,4.3,51,0.00,,,0.00,VWS V14.01,2014-01-03 04:59:00,
2014-01-02 23:00:00,-13.5,-26.5,29.03,SE,135,3.6,4.3,51,0.00,,,0.00,VWS V14.01,2014-01-03 05:00:00,
2014-01-02 23:04:00,-13.4,-26.3,29.03,SSE,158,4.3,4.3,51,0.00,,,0.00,VWS V14.01,2014-01-03 05:04:00,
2014-01-02 23:05:00,-13.4,-26.3,29.03,SSE,158,4.3,4.3,51,0.00,,,0.00,VWS V14.01,2014-01-03 05:05:00,
2014-01-02 23:09:00,-13.2,-26.1,29.03,SSE,158,2.9,4.9,51,0.00,,,0.00,VWS V14.01,2014-01-03 05:09:00,
2014-01-02 23:10:00,-13.2,-26.1,29.03,SSE,158,2.9,4.9,51,0.00,,,0.00,VWS V14.01,2014-01-03 05:10:00,
2014-01-02 23:15:00,-13.0,-26.0,29.03,SSE,158,2.9,3.4,51,0.00,,,0.00,VWS V14.01,2014-01-03 05:15:00,
2014-01-02 23:19:00,-13.2,-26.1,29.03,SSE,158,3.4,3.4,51,0.00,,,0.00,VWS V14.01,2014-01-03 05:19:00,
2014-01-02 23:20:00,-13.2,-26.1,29.03,SSE,158,3.4,3.4,51,0.00,,,0.00,VWS V14.01,2014-01-03 05:20:00,
2014-01-02 23:25:00,-13.2,-26.1,29.03,South,180,4.9,5.4,51,0.00,,,0.00,VWS V14.01,2014-01-03 05:25:00,
2014-01-02 23:29:00,-13.0,-26.0,29.03,South,180,4.5,4.9,51,0.00,,,0.00,VWS V14.01,2014-01-03 05:29:00,
2014-01-02 23:30:00,-13.0,-26.0,29.03,South,180,4.5,4.9,51,0.00,,,0.00,VWS V14.01,2014-01-03 05:30:00,
2014-01-02 23:35:00,-12.6,-25.6,29.03,SSE,158,5.4,6.3,51,0.00,,,0.00,VWS V14.01,2014-01-03 05:35:00,
2014-01-02 23:39:00,-12.5,-25.5,29.03,South,180,4.3,5.6,51,0.00,,,0.00,VWS V14.01,2014-01-03 05:39:00,
2014-01-02 23:40:00,-12.5,-25.5,29.03,South,180,4.3,5.6,51,0.00,,,0.00,VWS V14.01,2014-01-03 05:40:00,
2014-01-02 23:45:00,-12.5,-25.5,29.03,SSE,158,4.5,5.4,51,0.00,,,0.00,VWS V14.01,2014-01-03 05:45:00,
2014-01-02 23:49:00,-12.3,-25.3,29.03,SSE,158,4.0,4.7,51,0.00,,,0.00,VWS V14.01,2014-01-03 05:49:00,
2014-01-02 23:50:00,-12.3,-25.3,29.03,SSE,158,4.0,4.7,51,0.00,,,0.00,VWS V14.01,2014-01-03 05:50:00,
2014-01-02 23:55:00,-12.5,-25.5,29.00,SSE,158,4.5,4.9,51,0.00,,,0.00,VWS V14.01,2014-01-03 05:55:00,
2014-01-02 23:59:00,-12.3,-25.3,29.00,South,180,6.3,6.3,51,0.00,,,0.00,VWS V14.01,2014-01-03 05:59:00,